Time;durP1;ratioP1;P1;durP2;ratioP2;P2;SDS_P1;SDS_P2;PMS_P1;PMS_P2;Temp;Humidity;BMP_temperature;BMP_pressure;BME280_temperature;BME280_humidity;BME280_pressure;Samples;Min_cycle;Max_cycle;Signal;HPM_P1;HPM_P2
2022/06/12 00:01:27;;;;;;;6.90;3.97;;;22.20;55.70;;;;;;5037539;28;20045;-60
2022/06/12 00:03:56;;;;;;;7.10;4.38;;;22.20;55.80;;;;;;5035653;28;20129;-61
2022/06/12 00:06:22;;;;;;;7.47;4.35;;;22.10;55.80;;;;;;5037016;28;20198;-61
2022/06/12 00:08:48;;;;;;;8.00;4.35;;;22.10;55.90;;;;;;5035084;28;20037;-60
2022/06/12 00:11:17;;;;;;;8.25;4.13;;;22.20;55.90;;;;;;5035864;28;20056;-60
2022/06/12 00:13:48;;;;;;;8.30;4.35;;;22.20;56.00;;;;;;5035101;28;20472;-60
2022/06/12 00:16:15;;;;;;;7.10;4.05;;;22.20;55.90;;;;;;5035981;28;20122;-61
2022/06/12 00:18:42;;;;;;;7.13;3.92;;;22.10;55.80;;;;;;5038573;28;20151;-61
2022/06/12 00:21:11;;;;;;;9.18;4.18;;;22.20;55.90;;;;;;5036146;28;20036;-59
2022/06/12 00:23:53;;;;;;;7.40;4.10;;;22.10;55.90;;;;;;5035900;28;20080;-60
2022/06/12 00:26:29;;;;;;;9.73;4.43;;;22.10;55.70;;;;;;5036713;28;20102;-61
2022/06/12 00:28:57;;;;;;;6.65;3.75;;;22.10;55.80;;;;;;5034703;28;20512;-61
2022/06/12 00:31:23;;;;;;;6.38;3.60;;;22.10;55.70;;;;;;5039248;28;20124;-60
2022/06/12 00:33:48;;;;;;;5.90;3.50;;;22.10;55.70;;;;;;5038197;28;20164;-60
2022/06/12 00:36:14;;;;;;;5.95;3.50;;;22.10;55.70;;;;;;5037103;28;20044;-60
2022/06/12 00:38:40;;;;;;;5.40;3.40;;;22.10;55.70;;;;;;5036838;28;20096;-60
2022/06/12 00:41:06;;;;;;;6.38;3.70;;;22.10;55.70;;;;;;5038557;28;20516;-61
2022/06/12 00:43:32;;;;;;;7.00;3.22;;;22.10;55.80;;;;;;5036804;28;20033;-59
2022/06/12 00:45:59;;;;;;;5.90;3.03;;;22.10;55.80;;;;;;5040483;28;20486;-60
2022/06/12 00:48:37;;;;;;;7.20;3.85;;;22.10;55.80;;;;;;5033739;28;20040;-60
2022/06/12 00:51:17;;;;;;;5.53;3.17;;;22.10;55.60;;;;;;5038258;28;20048;-61
2022/06/12 00:53:58;;;;;;;5.53;3.45;;;22.10;55.60;;;;;;5036614;28;20393;-60
2022/06/12 00:56:30;;;;;;;6.63;2.95;;;22.10;55.70;;;;;;5035835;28;20726;-61
2022/06/12 00:59:02;;;;;;;6.60;2.90;;;22.10;55.70;;;;;;5034073;28;20033;-61
2022/06/12 01:01:33;;;;;;;7.03;3.33;;;22.10;55.70;;;;;;5038168;28;20089;-61
2022/06/12 01:06:46;;;;;;;4.88;3.00;;;22.10;55.70;;;;;;5034710;28;20041;-61
2022/06/12 01:09:22;;;;;;;5.75;3.42;;;22.10;55.60;;;;;;5038439;28;20433;-61
2022/06/12 01:11:49;;;;;;;4.03;2.60;;;22.10;55.60;;;;;;5034808;28;20041;-61
2022/06/12 01:14:17;;;;;;;5.88;2.90;;;22.10;55.60;;;;;;5037535;28;20041;-60
2022/06/12 01:16:45;;;;;;;4.43;2.92;;;22.10;55.60;;;;;;5036073;28;20048;-59
2022/06/12 01:19:29;;;;;;;4.13;2.70;;;22.10;55.40;;;;;;5032106;28;20120;-61
2022/06/12 01:22:14;;;;;;;5.82;3.10;;;22.10;55.40;;;;;;5033132;28;20052;-61
2022/06/12 01:25:19;;;;;;;4.82;2.50;;;22.00;55.50;;;;;;5035767;28;20171;-61
2022/06/12 01:28:18;;;;;;;3.55;2.50;;;22.10;55.40;;;;;;5034999;28;20030;-60
2022/06/12 01:31:15;;;;;;;6.70;2.53;;;22.10;55.40;;;;;;5032976;28;20043;-59
2022/06/12 01:33:52;;;;;;;4.00;2.90;;;22.10;55.40;;;;;;5027051;28;20048;-61
2022/06/12 01:36:55;;;;;;;4.40;2.63;;;22.00;55.30;;;;;;5032935;28;20619;-60
2022/06/12 01:39:47;;;;;;;4.28;2.67;;;22.10;55.20;;;;;;5036477;28;20507;-60
2022/06/12 01:42:15;;;;;;;4.45;2.60;;;22.00;55.20;;;;;;5032358;28;20041;-60
2022/06/12 01:45:00;;;;;;;5.80;2.40;;;22.00;55.20;;;;;;5034797;28;20063;-60
2022/06/12 01:47:46;;;;;;;4.95;2.67;;;22.00;55.10;;;;;;5034399;28;20138;-60
2022/06/12 01:50:32;;;;;;;4.95;2.53;;;22.00;55.10;;;;;;5035285;28;20048;-60
2022/06/12 01:53:13;;;;;;;3.08;2.53;;;22.00;55.10;;;;;;5037055;28;20095;-61
2022/06/12 01:55:47;;;;;;;4.88;2.65;;;22.00;55.10;;;;;;5034747;28;20069;-60
2022/06/12 01:58:22;;;;;;;4.95;2.50;;;22.00;55.00;;;;;;5035705;28;20404;-60
2022/06/12 02:00:54;;;;;;;4.47;2.22;;;22.00;55.00;;;;;;5031573;28;20044;-60
2022/06/12 02:03:28;;;;;;;6.13;2.50;;;22.00;55.00;;;;;;5038948;28;20075;-61
2022/06/12 02:06:05;;;;;;;4.35;2.60;;;22.00;55.00;;;;;;5035322;28;20045;-60
2022/06/12 02:08:34;;;;;;;3.63;2.25;;;22.00;54.90;;;;;;5033903;28;20315;-61
2022/06/12 02:14:17;;;;;;;5.95;2.63;;;22.00;54.80;;;;;;5021069;28;20053;-60
2022/06/12 02:16:47;;;;;;;2.95;2.30;;;22.00;54.90;;;;;;5034392;28;20045;-60
2022/06/12 02:19:28;;;;;;;2.67;2.03;;;22.00;54.90;;;;;;5034156;28;20033;-59
2022/06/12 02:22:19;;;;;;;3.22;2.20;;;22.00;54.80;;;;;;5031210;28;20060;-61
2022/06/12 02:25:31;;;;;;;3.85;2.00;;;22.00;54.80;;;;;;5028542;28;20041;-61
2022/06/12 02:28:07;;;;;;;4.43;2.05;;;22.00;54.70;;;;;;5016645;28;20108;-59
2022/06/12 02:30:39;;;;;;;3.80;2.08;;;22.00;54.80;;;;;;5034245;28;20040;-58
2022/06/12 02:33:11;;;;;;;3.53;2.10;;;22.00;54.70;;;;;;5034694;28;20033;-60
2022/06/12 02:35:49;;;;;;;3.67;2.05;;;22.00;54.70;;;;;;5035232;28;20051;-61
2022/06/12 02:38:36;;;;;;;3.72;2.33;;;22.00;54.60;;;;;;5034483;28;20049;-60
2022/06/12 02:41:23;;;;;;;2.92;1.90;;;22.00;54.70;;;;;;5035694;28;20044;-61
2022/06/12 02:43:54;;;;;;;2.85;1.80;;;21.90;54.50;;;;;;5037140;28;20681;-61
2022/06/12 02:46:44;;;;;;;3.35;2.13;;;22.00;54.60;;;;;;5032304;28;20045;-60
2022/06/12 02:49:11;;;;;;;3.25;1.75;;;22.00;54.50;;;;;;5036435;28;20037;-60
2022/06/12 02:51:49;;;;;;;4.80;1.75;;;22.00;54.50;;;;;;5033946;28;20098;-61
2022/06/12 02:54:33;;;;;;;2.15;1.48;;;22.00;54.50;;;;;;5034284;28;20044;-60
2022/06/12 02:56:59;;;;;;;3.63;2.10;;;22.00;54.50;;;;;;5034426;28;20049;-61
2022/06/12 02:59:48;;;;;;;2.50;2.10;;;22.00;54.50;;;;;;5032751;28;20075;-60
2022/06/12 03:02:35;;;;;;;2.97;2.00;;;21.90;54.30;;;;;;5032597;28;20098;-60
2022/06/12 03:05:18;;;;;;;2.88;1.95;;;22.00;54.40;;;;;;5034684;28;20099;-61
2022/06/12 03:07:44;;;;;;;3.63;1.80;;;22.00;54.40;;;;;;5034446;28;20047;-61
2022/06/12 03:10:15;;;;;;;2.80;1.90;;;22.00;54.40;;;;;;5034252;28;20393;-60
2022/06/12 03:12:41;;;;;;;2.75;1.80;;;22.00;54.30;;;;;;5035092;28;20045;-60
2022/06/12 03:15:27;;;;;;;3.38;1.95;;;22.00;54.30;;;;;;5033608;28;20544;-61
2022/06/12 03:17:52;;;;;;;3.83;1.80;;;22.00;54.30;;;;;;5033720;28;20033;-61
2022/06/12 03:20:18;;;;;;;5.15;2.30;;;22.00;54.30;;;;;;5034695;28;20567;-60
2022/06/12 03:22:56;;;;;;;2.80;1.85;;;22.00;54.30;;;;;;5035305;28;20063;-60
2022/06/12 03:25:41;;;;;;;2.97;1.73;;;22.00;54.20;;;;;;5032160;28;20029;-60
2022/06/12 03:28:22;;;;;;;4.53;1.80;;;21.90;54.10;;;;;;5035733;28;20048;-60
2022/06/12 03:30:59;;;;;;;2.17;1.40;;;21.90;54.10;;;;;;5036265;28;20059;-61
2022/06/12 03:33:50;;;;;;;2.65;1.90;;;21.90;54.10;;;;;;5037515;28;20033;-61
2022/06/12 03:36:18;;;;;;;;;;;22.00;54.10;;;;;;5038717;28;20752;-60
2022/06/12 03:39:18;;;;;;;3.63;1.55;;;21.90;54.00;;;;;;5038487;28;20332;-61
2022/06/12 03:42:03;;;;;;;2.63;1.40;;;21.90;54.10;;;;;;5039222;28;20049;-60
2022/06/12 03:44:35;;;;;;;2.78;1.90;;;21.90;54.10;;;;;;5038786;28;20029;-60
2022/06/12 03:47:47;;;;;;;3.65;1.88;;;21.90;54.10;;;;;;5035705;28;20038;-61
2022/06/12 03:50:19;;;;;;;2.60;1.58;;;21.90;54.00;;;;;;5028427;28;20049;-59
2022/06/12 03:53:02;;;;;;;2.38;1.40;;;21.90;54.00;;;;;;5037794;28;20041;-59
2022/06/12 03:58:30;;;;;;;2.83;1.52;;;21.90;53.90;;;;;;5016584;28;20049;-59
2022/06/12 04:00:59;;;;;;;2.28;1.40;;;21.90;53.90;;;;;;5036991;28;20036;-59
2022/06/12 04:03:32;;;;;;;2.60;1.55;;;21.90;53.90;;;;;;5037633;28;20100;-59
2022/06/12 04:06:05;;;;;;;1.88;1.25;;;21.90;53.90;;;;;;5037890;28;20448;-59
2022/06/12 04:08:43;;;;;;;3.33;1.42;;;21.90;53.90;;;;;;5034481;28;20398;-59
2022/06/12 04:11:12;;;;;;;3.33;1.73;;;21.90;53.90;;;;;;5037746;28;20048;-59
2022/06/12 04:13:39;;;;;;;3.35;1.40;;;21.90;53.90;;;;;;5036842;28;20127;-60
2022/06/12 04:16:27;;;;;;;2.67;1.40;;;21.90;53.90;;;;;;5037276;28;20041;-58
2022/06/12 04:18:53;;;;;;;2.70;1.70;;;21.90;53.80;;;;;;5039458;28;20044;-59
2022/06/12 04:21:22;;;;;;;3.05;1.58;;;21.90;53.90;;;;;;5036660;28;20064;-59
2022/06/12 04:24:25;;;;;;;2.30;1.50;;;21.90;53.80;;;;;;5035879;28;20049;-59
2022/06/12 04:26:58;;;;;;;2.50;1.38;;;21.90;53.80;;;;;;5030919;28;20590;-59
2022/06/12 04:29:33;;;;;;;3.20;1.45;;;21.90;53.90;;;;;;5036365;28;20033;-59
2022/06/12 04:32:02;;;;;;;2.78;1.42;;;21.90;53.80;;;;;;5035109;28;20072;-59
2022/06/12 04:34:30;;;;;;;2.38;1.40;;;21.90;53.90;;;;;;5038698;28;20124;-59
2022/06/12 04:37:03;;;;;;;2.45;1.45;;;21.90;53.80;;;;;;5035799;28;20071;-59
2022/06/12 04:39:32;;;;;;;2.00;1.40;;;21.90;53.80;;;;;;5034208;28;21931;-59
2022/06/12 04:42:00;;;;;;;3.28;1.50;;;21.90;53.80;;;;;;5037787;28;20037;-60
2022/06/12 04:44:27;;;;;;;2.15;1.38;;;21.90;53.80;;;;;;5037229;28;20049;-60
2022/06/12 04:46:55;;;;;;;3.22;1.60;;;21.90;53.80;;;;;;5033178;28;20156;-59
2022/06/12 04:49:25;;;;;;;2.67;1.40;;;21.90;53.80;;;;;;5033045;28;20079;-59
2022/06/12 04:51:53;;;;;;;2.28;1.23;;;21.90;53.80;;;;;;5033966;28;20037;-60
2022/06/12 04:54:19;;;;;;;2.97;1.30;;;21.90;53.80;;;;;;5035212;28;20037;-59
2022/06/12 04:56:45;;;;;;;3.10;1.40;;;21.90;53.80;;;;;;5035120;28;20119;-59
2022/06/12 04:59:12;;;;;;;1.63;1.33;;;21.90;53.80;;;;;;5035346;28;20362;-60
2022/06/12 05:01:39;;;;;;;3.35;1.50;;;21.90;53.70;;;;;;5036234;28;20037;-59
2022/06/12 05:04:05;;;;;;;3.08;1.27;;;21.90;53.80;;;;;;5035364;28;20041;-59
2022/06/12 05:06:32;;;;;;;2.15;1.30;;;21.90;53.80;;;;;;5035642;28;20500;-59
2022/06/12 05:08:57;;;;;;;3.38;1.65;;;21.90;53.80;;;;;;5037740;28;20040;-60
2022/06/12 05:11:23;;;;;;;2.28;1.30;;;21.90;53.80;;;;;;5036832;28;20037;-59
2022/06/12 05:13:50;;;;;;;2.40;1.17;;;21.90;53.80;;;;;;5036874;28;20071;-59
2022/06/12 05:16:28;;;;;;;2.03;1.30;;;21.90;53.80;;;;;;5036231;28;20045;-59
2022/06/12 05:18:55;;;;;;;3.58;1.33;;;21.90;53.90;;;;;;5034628;28;20052;-60
2022/06/12 05:21:22;;;;;;;2.88;1.17;;;21.90;53.90;;;;;;5034826;28;20050;-59
2022/06/12 05:23:48;;;;;;;2.30;1.30;;;21.90;53.90;;;;;;5034887;28;20127;-59
2022/06/12 05:26:16;;;;;;;3.28;1.30;;;21.90;53.90;;;;;;5035250;28;20453;-59
2022/06/12 05:28:41;;;;;;;3.95;1.58;;;21.90;53.90;;;;;;5035599;28;20043;-60
2022/06/12 05:31:07;;;;;;;2.13;1.33;;;21.90;53.90;;;;;;5035197;28;20029;-60
2022/06/12 05:33:33;;;;;;;2.75;1.20;;;21.90;54.60;;;;;;5037963;28;20060;-58
2022/06/12 05:35:58;;;;;;;3.60;1.83;;;21.90;54.00;;;;;;5035503;28;20188;-60
2022/06/12 05:38:24;;;;;;;3.40;1.80;;;21.90;53.80;;;;;;5036888;28;20049;-60
2022/06/12 05:40:50;;;;;;;3.53;1.30;;;21.90;53.90;;;;;;5035533;28;20037;-59
2022/06/12 05:43:16;;;;;;;5.25;1.20;;;21.80;54.00;;;;;;5028144;28;20053;-59
2022/06/12 05:45:42;;;;;;;4.38;1.38;;;21.80;54.20;;;;;;5036697;28;20056;-59
2022/06/12 05:48:15;;;;;;;2.85;1.52;;;21.90;54.50;;;;;;5033897;28;20064;-59
2022/06/12 05:50:59;;;;;;;6.05;1.50;;;21.90;54.40;;;;;;5036166;28;20381;-60
2022/06/12 05:53:28;;;;;;;6.25;1.67;;;21.90;54.60;;;;;;5033547;28;20054;-59
2022/06/12 05:55:54;;;;;;;6.32;1.65;;;21.90;54.60;;;;;;5035848;28;20405;-59
2022/06/12 05:58:23;;;;;;;7.00;1.95;;;21.90;54.50;;;;;;5035293;28;20052;-60
2022/06/12 06:00:49;;;;;;;6.32;1.90;;;21.90;54.70;;;;;;5034197;28;20044;-60
2022/06/12 06:03:14;;;;;;;4.93;1.55;;;21.90;54.70;;;;;;5033916;28;20041;-59
2022/06/12 06:05:41;;;;;;;6.20;1.90;;;21.80;54.70;;;;;;5034752;28;20099;-59
2022/06/12 06:08:08;;;;;;;5.35;1.70;;;21.90;54.80;;;;;;5036999;28;20397;-59
2022/06/12 06:10:34;;;;;;;5.65;2.08;;;21.90;54.90;;;;;;5035891;28;20044;-59
2022/06/12 06:13:00;;;;;;;4.75;2.00;;;21.90;54.90;;;;;;5034726;28;20090;-60
2022/06/12 06:15:26;;;;;;;5.50;2.03;;;21.90;54.90;;;;;;5036185;28;20063;-59
2022/06/12 06:17:55;;;;;;;4.00;2.08;;;21.90;54.80;;;;;;5031058;28;20052;-59
2022/06/12 06:20:25;;;;;;;5.13;1.73;;;21.90;54.90;;;;;;5031964;28;20527;-59
2022/06/12 06:22:51;;;;;;;5.75;1.90;;;21.90;54.90;;;;;;5032547;28;20144;-59
2022/06/12 06:25:19;;;;;;;3.63;1.38;;;21.90;55.00;;;;;;5033060;28;20057;-59
2022/06/12 06:27:44;;;;;;;7.00;2.13;;;21.90;55.00;;;;;;5032245;28;20080;-60
2022/06/12 06:30:11;;;;;;;9.80;2.83;;;21.90;54.90;;;;;;5032847;28;21255;-60
2022/06/12 06:32:37;;;;;;;6.60;2.03;;;21.90;54.80;;;;;;5030333;28;20052;-60
2022/06/12 06:35:04;;;;;;;7.07;1.90;;;21.90;54.80;;;;;;5031500;28;20067;-60
2022/06/12 06:37:31;;;;;;;6.68;2.50;;;21.90;54.80;;;;;;5035234;28;20065;-59
2022/06/12 06:39:57;;;;;;;7.85;2.47;;;21.90;54.70;;;;;;5034706;28;20041;-60
2022/06/12 06:42:23;;;;;;;6.35;2.10;;;21.90;55.10;;;;;;5034344;28;20076;-59
2022/06/12 06:47:35;;;;;;;7.07;2.47;;;21.90;55.30;;;;;;5031707;28;20083;-61
2022/06/12 06:50:02;;;;;;;8.20;2.72;;;21.90;55.40;;;;;;5032014;28;20037;-59
2022/06/12 06:52:28;;;;;;;6.68;2.78;;;21.90;56.30;;;;;;5031602;28;20036;-59
2022/06/12 06:54:53;;;;;;;9.00;2.70;;;21.90;55.70;;;;;;5033352;28;20049;-60
2022/06/12 06:57:19;;;;;;;10.07;2.92;;;21.90;55.80;;;;;;5032916;28;20520;-58
2022/06/12 06:59:45;;;;;;;7.78;2.72;;;21.90;55.90;;;;;;5033568;28;20041;-60
2022/06/12 07:02:11;;;;;;;7.28;2.80;;;21.90;56.20;;;;;;5031701;28;20056;-60
2022/06/12 07:04:37;;;;;;;8.68;2.53;;;21.90;56.60;;;;;;5035265;28;20441;-60
2022/06/12 07:07:03;;;;;;;9.35;2.53;;;21.90;56.70;;;;;;5038510;28;20140;-60
2022/06/12 07:09:29;;;;;;;8.52;2.25;;;21.90;56.90;;;;;;5038770;28;20116;-59
2022/06/12 07:11:54;;;;;;;8.18;2.53;;;21.90;56.70;;;;;;5038232;28;20127;-59
2022/06/12 07:14:20;;;;;;;9.13;2.53;;;21.90;56.90;;;;;;5038774;28;20049;-59
2022/06/12 07:16:46;;;;;;;8.63;3.30;;;21.90;57.10;;;;;;5036368;28;20481;-58
2022/06/12 07:19:11;;;;;;;8.75;3.08;;;21.90;56.90;;;;;;5038422;28;20432;-62
2022/06/12 07:21:38;;;;;;;12.93;3.35;;;21.90;57.20;;;;;;5037337;28;20041;-61
2022/06/12 07:24:03;;;;;;;8.73;2.88;;;21.90;57.50;;;;;;5038361;28;20120;-63
2022/06/12 07:26:34;;;;;;;11.55;3.28;;;21.90;57.70;;;;;;5038955;28;20167;-60
2022/06/12 07:29:00;;;;;;;8.82;2.97;;;21.90;57.70;;;;;;5038913;28;20146;-61
2022/06/12 07:31:26;;;;;;;8.73;3.00;;;21.90;57.70;;;;;;5039567;28;20045;-60
2022/06/12 07:33:52;;;;;;;8.48;2.45;;;21.90;57.70;;;;;;5036742;28;20488;-61
2022/06/12 07:36:19;;;;;;;6.28;2.47;;;21.90;58.20;;;;;;5038566;28;20049;-60
2022/06/12 07:38:47;;;;;;;12.77;3.20;;;21.90;58.00;;;;;;5036513;28;20049;-60
2022/06/12 07:41:14;;;;;;;6.00;2.35;;;21.90;58.20;;;;;;5036232;28;20053;-59
2022/06/12 07:43:42;;;;;;;10.98;3.35;;;21.90;58.10;;;;;;5035234;28;20045;-59
2022/06/12 07:46:10;;;;;;;14.23;3.00;;;22.00;58.40;;;;;;5033552;28;20069;-59
2022/06/12 07:48:37;;;;;;;9.32;3.00;;;21.90;58.40;;;;;;5040712;28;20496;-58
2022/06/12 07:51:07;;;;;;;11.85;3.15;;;22.00;58.50;;;;;;5026796;28;20056;-59
2022/06/12 07:53:34;;;;;;;9.60;3.47;;;22.00;58.40;;;;;;5033319;28;20037;-59
2022/06/12 07:55:59;;;;;;;8.32;2.72;;;22.00;58.20;;;;;;5031742;28;20067;-60
2022/06/12 07:58:25;;;;;;;7.45;2.90;;;22.00;58.10;;;;;;5032932;28;20040;-59
2022/06/12 08:00:54;;;;;;;12.70;3.08;;;21.90;57.80;;;;;;5034973;28;20079;-60
2022/06/12 08:03:20;;;;;;;8.70;2.83;;;21.90;57.70;;;;;;5034718;28;20073;-60
2022/06/12 08:05:46;;;;;;;8.73;3.40;;;21.90;57.70;;;;;;5035434;28;20041;-60
2022/06/12 08:08:12;;;;;;;7.75;2.85;;;22.00;57.60;;;;;;5034776;28;20029;-61
2022/06/12 08:10:37;;;;;;;8.07;3.30;;;21.90;57.50;;;;;;5033770;28;20075;-59
2022/06/12 08:13:06;;;;;;;10.40;3.22;;;21.90;57.60;;;;;;5035976;28;20126;-60
2022/06/12 08:15:34;;;;;;;9.68;3.70;;;21.90;57.90;;;;;;5037266;28;20045;-60
2022/06/12 08:18:00;;;;;;;8.90;3.25;;;21.90;58.10;;;;;;5036608;28;20486;-60
2022/06/12 08:20:28;;;;;;;9.73;3.50;;;21.90;58.40;;;;;;5036369;28;20119;-59
2022/06/12 08:22:57;;;;;;;14.35;3.63;;;21.90;58.10;;;;;;5033629;28;20041;-59
2022/06/12 08:25:23;;;;;;;7.18;3.15;;;21.90;58.50;;;;;;5030311;28;20053;-59
2022/06/12 08:27:49;;;;;;;11.95;3.95;;;21.90;58.60;;;;;;5030523;28;20029;-59
2022/06/12 08:30:15;;;;;;;9.80;2.92;;;22.00;58.80;;;;;;5034084;28;20041;-60
2022/06/12 08:32:44;;;;;;;10.38;3.17;;;21.90;58.80;;;;;;5033448;28;20044;-59
2022/06/12 08:35:19;;;;;;;7.50;2.70;;;21.90;58.80;;;;;;5031451;28;20037;-60
2022/06/12 08:37:45;;;;;;;11.18;3.00;;;22.00;58.80;;;;;;5036074;28;20107;-60
2022/06/12 08:40:35;;;;;;;12.48;3.50;;;22.00;58.70;;;;;;5029939;28;20053;-60
2022/06/12 08:43:35;;;;;;;11.88;3.53;;;22.00;58.80;;;;;;5023885;28;20705;-61
2022/06/12 08:46:15;;;;;;;12.68;3.63;;;22.00;58.90;;;;;;5038556;28;20064;-59
2022/06/12 08:49:10;;;;;;;11.88;3.58;;;22.00;59.10;;;;;;5047230;28;20036;-60
2022/06/12 08:51:41;;;;;;;9.63;3.15;;;22.00;59.10;;;;;;5051589;28;20306;-61
2022/06/12 08:54:33;;;;;;;11.18;3.33;;;21.90;59.10;;;;;;5045573;28;20124;-60
2022/06/12 08:57:07;;;;;;;10.73;3.50;;;22.00;59.10;;;;;;5045171;28;20378;-60
2022/06/12 08:59:35;;;;;;;10.63;3.53;;;21.90;59.10;;;;;;5044284;28;20048;-60
2022/06/12 09:02:04;;;;;;;11.05;3.78;;;22.00;59.20;;;;;;5043084;28;20505;-60
2022/06/12 09:04:30;;;;;;;9.43;3.55;;;21.90;59.20;;;;;;5045900;28;20135;-60
2022/06/12 09:07:05;;;;;;;12.98;3.58;;;21.90;59.20;;;;;;5042941;28;20041;-60
2022/06/12 09:09:43;;;;;;;7.72;2.83;;;21.90;59.10;;;;;;5053583;28;20040;-60
2022/06/12 09:12:20;;;;;;;9.68;3.25;;;22.00;59.20;;;;;;5052926;28;20562;-59
2022/06/12 09:15:07;;;;;;;8.77;3.83;;;21.90;59.10;;;;;;5055336;28;20078;-59
2022/06/12 09:17:58;;;;;;;16.20;3.03;;;21.90;59.10;;;;;;5052318;28;20044;-60
2022/06/12 09:20:47;;;;;;;9.90;3.00;;;21.90;59.00;;;;;;5053783;28;20040;-60
2022/06/12 09:23:21;;;;;;;10.38;3.08;;;21.90;58.90;;;;;;5049286;28;20044;-58
2022/06/12 09:25:46;;;;;;;8.68;3.05;;;21.90;59.10;;;;;;5047909;28;20053;-60
2022/06/12 09:28:31;;;;;;;9.75;3.03;;;21.90;59.00;;;;;;5041941;28;20439;-60
2022/06/12 09:31:10;;;;;;;6.75;2.55;;;22.00;58.80;;;;;;5051704;28;20036;-60
2022/06/12 09:34:04;;;;;;;8.48;2.63;;;22.00;58.60;;;;;;5054063;28;20041;-60
2022/06/12 09:40:11;;;;;;;7.28;2.45;;;22.00;58.30;;;;;;5054884;28;20142;-59
2022/06/12 09:43:08;;;;;;;5.25;1.83;;;22.00;58.20;;;;;;5043982;28;20560;-59
2022/06/12 09:45:58;;;;;;;6.10;2.53;;;22.00;58.10;;;;;;5052517;28;20067;-59
2022/06/12 09:48:40;;;;;;;4.45;1.98;;;21.90;57.90;;;;;;5056501;28;20141;-60
2022/06/12 09:51:08;;;;;;;5.10;2.55;;;21.90;57.90;;;;;;5053886;28;20056;-59
2022/06/12 09:53:40;;;;;;;7.93;2.53;;;22.00;57.70;;;;;;5054385;28;20098;-59
2022/06/12 09:56:24;;;;;;;6.47;2.80;;;21.90;57.50;;;;;;5052385;28;20437;-60
2022/06/12 09:59:01;;;;;;;5.88;2.10;;;22.00;57.50;;;;;;5054540;28;20411;-58
2022/06/12 10:01:34;;;;;;;6.03;2.15;;;22.00;57.60;;;;;;5051741;28;20037;-59
2022/06/12 10:04:05;;;;;;;4.90;2.50;;;22.00;57.40;;;;;;5053113;28;20380;-59
2022/06/12 10:06:38;;;;;;;7.05;2.47;;;22.00;57.40;;;;;;5054374;28;20029;-59
2022/06/12 10:09:28;;;;;;;8.50;2.63;;;21.90;57.20;;;;;;5056574;28;21108;-59
2022/06/12 10:12:02;;;;;;;6.20;2.22;;;21.90;57.20;;;;;;5057350;28;20040;-60
2022/06/12 10:14:35;;;;;;;4.25;2.00;;;21.90;57.00;;;;;;5055102;28;20119;-58
2022/06/12 10:17:03;;;;;;;10.93;3.33;;;22.00;56.90;;;;;;5051863;28;20033;-59
2022/06/12 10:19:47;;;;;;;7.30;2.67;;;21.90;56.90;;;;;;5053227;28;20055;-59
2022/06/12 10:22:19;;;;;;;9.48;2.65;;;21.90;55.40;;;;;;5054851;28;20103;-59
2022/06/12 10:24:45;;;;;;;7.38;2.65;;;21.90;55.50;;;;;;5054609;28;20117;-59
2022/06/12 10:27:14;;;;;;;12.65;3.15;;;21.80;55.30;;;;;;5054531;28;20532;-59
2022/06/12 10:30:00;;;;;;;6.70;2.67;;;21.80;55.30;;;;;;5053376;28;20461;-59
2022/06/12 10:32:52;;;;;;;5.80;2.38;;;21.80;55.00;;;;;;5052923;28;20037;-59
2022/06/12 10:35:20;;;;;;;9.60;2.90;;;21.70;54.80;;;;;;5056276;28;20131;-58
2022/06/12 10:37:46;;;;;;;9.07;2.95;;;21.70;54.90;;;;;;5054327;28;20040;-57
2022/06/12 10:40:13;;;;;;;5.55;2.10;;;21.70;55.00;;;;;;5057305;28;20033;-58
2022/06/12 10:42:49;;;;;;;6.00;2.30;;;21.70;54.70;;;;;;5057215;28;20057;-57
2022/06/12 10:45:33;;;;;;;5.38;2.08;;;21.70;53.70;;;;;;5057283;28;20129;-58
2022/06/12 10:48:02;;;;;;;6.20;2.30;;;21.70;52.60;;;;;;5058877;28;20033;-57
2022/06/12 10:50:32;;;;;;;7.22;2.08;;;21.70;52.80;;;;;;5059199;28;20041;-58
2022/06/12 10:52:57;;;;;;;6.40;2.05;;;21.60;52.10;;;;;;5058784;28;20037;-58
2022/06/12 10:55:58;;;;;;;4.07;1.80;;;21.70;52.20;;;;;;5056729;28;20417;-59
2022/06/12 10:58:58;;;;;;;15.27;2.28;;;21.70;51.20;;;;;;5047263;28;20041;-59
2022/06/12 11:02:01;;;;;;;7.05;2.50;;;21.70;51.70;;;;;;5058059;28;20423;-59
2022/06/12 11:04:46;;;;;;;4.38;1.60;;;21.60;51.60;;;;;;5054628;28;20136;-59
2022/06/12 11:07:36;;;;;;;5.80;1.90;;;21.70;51.20;;;;;;5057069;28;20040;-58
2022/06/12 11:10:14;;;;;;;6.25;1.70;;;21.70;51.50;;;;;;5058646;28;20337;-57
2022/06/12 11:13:18;;;;;;;6.22;1.92;;;21.70;51.90;;;;;;5058895;28;20115;-58
2022/06/12 11:16:02;;;;;;;4.97;1.80;;;21.70;52.20;;;;;;5056087;28;20036;-57
2022/06/12 11:19:02;;;;;;;6.35;1.70;;;21.80;52.90;;;;;;5057834;28;20045;-57
2022/06/12 11:21:37;;;;;;;4.10;1.50;;;21.80;52.00;;;;;;5054447;28;20041;-57
2022/06/12 11:24:16;;;;;;;5.05;1.60;;;21.80;52.10;;;;;;5057695;28;20044;-58
2022/06/12 11:27:10;;;;;;;4.60;1.88;;;21.80;52.30;;;;;;5056407;28;20151;-60
2022/06/12 11:29:49;;;;;;;4.28;1.65;;;21.80;52.00;;;;;;5054961;28;20048;-56
2022/06/12 11:32:28;;;;;;;3.30;1.45;;;21.80;52.20;;;;;;5055568;28;20099;-56
2022/06/12 11:35:11;;;;;;;4.05;1.60;;;21.80;52.40;;;;;;5058236;28;20044;-57
2022/06/12 11:37:43;;;;;;;5.38;1.70;;;21.80;52.70;;;;;;5057055;28;20126;-57
2022/06/12 11:40:24;;;;;;;5.05;1.80;;;21.80;52.50;;;;;;5056237;28;20051;-58
2022/06/12 11:42:58;;;;;;;4.90;1.85;;;21.80;52.50;;;;;;5058243;28;20095;-58
2022/06/12 11:46:03;;;;;;;4.95;1.90;;;21.80;52.60;;;;;;5058210;28;20048;-57
2022/06/12 11:48:48;;;;;;;5.47;1.80;;;21.80;52.30;;;;;;5060285;28;20567;-57
2022/06/12 11:51:42;;;;;;;2.95;1.40;;;21.80;52.50;;;;;;5056711;28;20036;-57
2022/06/12 11:54:14;;;;;;;2.65;1.30;;;21.80;52.30;;;;;;5056792;28;20571;-57
2022/06/12 11:56:55;;;;;;;2.60;1.52;;;21.80;52.50;;;;;;5055848;28;20110;-57
2022/06/12 11:59:52;;;;;;;2.70;1.60;;;21.80;52.60;;;;;;5056496;28;20053;-56
2022/06/12 12:02:37;;;;;;;2.63;1.52;;;21.90;52.60;;;;;;5055049;28;20080;-57
2022/06/12 12:05:19;;;;;;;3.60;1.40;;;21.90;52.60;;;;;;5055753;28;20048;-58
2022/06/12 12:08:03;;;;;;;4.03;1.52;;;21.90;52.80;;;;;;5055849;28;20047;-57
2022/06/12 12:10:31;;;;;;;2.60;1.45;;;21.90;52.80;;;;;;5057175;28;20233;-58
2022/06/12 12:13:05;;;;;;;5.45;1.75;;;21.90;53.20;;;;;;5049914;28;20044;-58
2022/06/12 12:15:40;;;;;;;2.67;1.50;;;21.90;54.00;;;;;;5057951;28;20049;-57
2022/06/12 12:18:19;;;;;;;4.93;1.50;;;21.90;54.50;;;;;;5052132;28;20043;-59
2022/06/12 12:20:46;;;;;;;6.18;1.50;;;21.90;54.60;;;;;;5055279;28;20387;-57
2022/06/12 12:23:20;;;;;;;3.92;1.50;;;21.90;54.60;;;;;;5055412;28;20504;-57
2022/06/12 12:25:49;;;;;;;4.20;1.80;;;21.90;54.70;;;;;;5051848;28;20073;-58
2022/06/12 12:28:28;;;;;;;4.75;2.03;;;21.90;54.50;;;;;;5055532;28;20053;-58
2022/06/12 12:30:59;;;;;;;4.38;1.30;;;21.90;54.60;;;;;;5052852;28;20041;-58
2022/06/12 12:33:26;;;;;;;2.72;1.52;;;21.90;54.50;;;;;;5053148;28;20037;-57
2022/06/12 12:41:42;;;;;;;3.10;1.50;;;21.90;54.20;;;;;;5054781;28;20099;-57
2022/06/12 12:44:08;;;;;;;5.10;1.23;;;21.90;54.20;;;;;;5053470;28;20028;-58
2022/06/12 12:46:49;;;;;;;5.07;1.67;;;21.90;54.10;;;;;;5053967;28;20045;-58
2022/06/12 12:49:21;;;;;;;2.75;1.30;;;22.00;54.20;;;;;;5057032;28;20043;-59
2022/06/12 12:51:47;;;;;;;8.20;1.48;;;22.00;54.50;;;;;;5054711;28;20150;-58
2022/06/12 12:54:20;;;;;;;3.42;1.75;;;22.00;54.60;;;;;;5053563;28;20045;-57
2022/06/12 12:57:04;;;;;;;3.22;1.60;;;21.90;54.60;;;;;;5054805;28;20068;-58
2022/06/12 12:59:48;;;;;;;4.65;1.90;;;22.00;54.40;;;;;;5054085;28;20542;-57
2022/06/12 13:02:27;;;;;;;5.15;1.35;;;22.00;54.40;;;;;;5051712;28;20053;-57
2022/06/12 13:04:57;;;;;;;4.50;1.67;;;21.90;54.70;;;;;;5052573;28;20028;-60
2022/06/12 13:07:22;;;;;;;5.20;1.58;;;22.00;54.70;;;;;;5054225;28;20035;-58
2022/06/12 13:10:03;;;;;;;3.72;1.48;;;22.00;54.60;;;;;;5055800;28;20030;-58
2022/06/12 13:12:40;;;;;;;3.45;1.60;;;22.00;54.90;;;;;;5053591;28;20049;-58
2022/06/12 13:15:31;;;;;;;4.97;1.63;;;22.00;54.90;;;;;;5054120;28;20098;-58
2022/06/12 13:18:25;;;;;;;3.03;1.75;;;22.00;55.20;;;;;;5046241;28;20094;-61
2022/06/12 13:21:00;;;;;;;5.97;1.63;;;22.10;55.80;;;;;;5052304;28;20155;-58
2022/06/12 13:23:48;;;;;;;4.63;1.50;;;22.00;55.70;;;;;;5050327;28;20041;-58
2022/06/12 13:26:17;;;;;;;4.32;1.40;;;22.10;55.50;;;;;;5050358;28;20063;-59
2022/06/12 13:28:55;;;;;;;3.33;1.77;;;22.10;56.10;;;;;;5052253;28;20044;-58
2022/06/12 13:31:21;;;;;;;2.75;1.60;;;22.10;56.20;;;;;;5054211;28;20039;-57
2022/06/12 13:33:56;;;;;;;4.63;1.58;;;22.10;56.20;;;;;;5052443;28;20036;-60
2022/06/12 13:36:26;;;;;;;2.95;1.50;;;22.10;56.50;;;;;;5053111;28;20048;-58
2022/06/12 13:38:57;;;;;;;7.05;1.80;;;22.10;56.20;;;;;;5053698;28;20036;-58
2022/06/12 13:41:26;;;;;;;4.35;1.73;;;22.10;56.20;;;;;;5051329;28;20041;-57
2022/06/12 13:43:51;;;;;;;3.50;1.30;;;22.10;56.10;;;;;;5052916;28;20076;-58